Terminal Aerodrome Forecast
Issued by NWS Knoxville/Tri Cities, TN

Home | Current Version | Previous Version | Text Only | Print | Product List | Glossary On
Versions: 1 2 3 4 5 6 7 8 9 10 11 12 13 14 15 16 17 18 19 20 21 22 23 24 25 26 27 28 29 30 31 32 33 34 35 36 37 38 39 40
000
FTUS44 KMRX 281130
TAFTRI
TAF
KTRI 281130Z 2812/2912 00000KT 1/2SM FG VV002
     FM281300 00000KT 3SM BR BKN003
     FM281330 22003KT P6SM FEW004 SCT040
     FM281600 24010KT P6SM FEW100
     FM290200 23003KT P6SM BKN090
     FM290800 25004KT P6SM BKN070=

USA.gov is the U.S. government's official web portal to all federal, state and local government web resources and services.